sensor_id;sensor_type;location;lat;lon;timestamp;P1;durP1;ratioP1;P2;durP2;ratioP2
64335;SDS011;50672;53.362;-6.240;2023-03-04T00:02:06;4.17;;;1.90;;
64335;SDS011;50672;53.362;-6.240;2023-03-04T00:04:33;10.47;;;4.20;;
64335;SDS011;50672;53.362;-6.240;2023-03-04T00:07:00;6.70;;;2.97;;
64335;SDS011;50672;53.362;-6.240;2023-03-04T00:09:30;5.03;;;1.70;;
64335;SDS011;50672;53.362;-6.240;2023-03-04T00:11:56;3.20;;;1.20;;
64335;SDS011;50672;53.362;-6.240;2023-03-04T00:14:23;8.27;;;1.83;;
64335;SDS011;50672;53.362;-6.240;2023-03-04T00:16:50;4.10;;;1.83;;
64335;SDS011;50672;53.362;-6.240;2023-03-04T00:19:17;4.00;;;2.40;;
64335;SDS011;50672;53.362;-6.240;2023-03-04T00:21:43;2.90;;;1.77;;
64335;SDS011;50672;53.362;-6.240;2023-03-04T00:24:10;3.63;;;2.00;;
64335;SDS011;50672;53.362;-6.240;2023-03-04T00:26:37;6.13;;;2.10;;
64335;SDS011;50672;53.362;-6.240;2023-03-04T00:29:04;3.70;;;1.80;;
64335;SDS011;50672;53.362;-6.240;2023-03-04T00:31:31;5.50;;;1.83;;
64335;SDS011;50672;53.362;-6.240;2023-03-04T00:33:58;3.40;;;1.53;;
64335;SDS011;50672;53.362;-6.240;2023-03-04T00:36:25;3.80;;;1.50;;
64335;SDS011;50672;53.362;-6.240;2023-03-04T00:38:52;3.57;;;1.50;;
64335;SDS011;50672;53.362;-6.240;2023-03-04T00:41:18;5.87;;;2.47;;
64335;SDS011;50672;53.362;-6.240;2023-03-04T00:43:45;3.60;;;2.13;;
64335;SDS011;50672;53.362;-6.240;2023-03-04T00:46:12;5.17;;;2.60;;
64335;SDS011;50672;53.362;-6.240;2023-03-04T00:48:39;6.20;;;2.30;;
64335;SDS011;50672;53.362;-6.240;2023-03-04T00:51:06;6.73;;;2.70;;
64335;SDS011;50672;53.362;-6.240;2023-03-04T00:53:33;5.83;;;2.73;;
64335;SDS011;50672;53.362;-6.240;2023-03-04T00:55:59;3.57;;;1.73;;
64335;SDS011;50672;53.362;-6.240;2023-03-04T00:58:26;4.40;;;1.80;;
64335;SDS011;50672;53.362;-6.240;2023-03-04T01:00:53;3.53;;;1.83;;
64335;SDS011;50672;53.362;-6.240;2023-03-04T01:03:20;4.27;;;1.20;;
64335;SDS011;50672;53.362;-6.240;2023-03-04T01:05:46;3.97;;;1.30;;
64335;SDS011;50672;53.362;-6.240;2023-03-04T01:08:13;6.77;;;1.33;;
64335;SDS011;50672;53.362;-6.240;2023-03-04T01:10:40;7.10;;;1.40;;
64335;SDS011;50672;53.362;-6.240;2023-03-04T01:13:06;4.80;;;1.23;;
64335;SDS011;50672;53.362;-6.240;2023-03-04T01:15:33;4.33;;;1.10;;
64335;SDS011;50672;53.362;-6.240;2023-03-04T01:18:00;5.57;;;1.50;;
64335;SDS011;50672;53.362;-6.240;2023-03-04T01:20:27;5.37;;;1.67;;
64335;SDS011;50672;53.362;-6.240;2023-03-04T01:22:54;2.93;;;1.40;;
64335;SDS011;50672;53.362;-6.240;2023-03-04T01:25:21;4.17;;;1.60;;
64335;SDS011;50672;53.362;-6.240;2023-03-04T01:27:47;3.43;;;1.63;;
64335;SDS011;50672;53.362;-6.240;2023-03-04T01:30:14;6.10;;;1.70;;
64335;SDS011;50672;53.362;-6.240;2023-03-04T01:32:41;2.13;;;1.10;;
64335;SDS011;50672;53.362;-6.240;2023-03-04T01:35:08;5.37;;;1.70;;
64335;SDS011;50672;53.362;-6.240;2023-03-04T01:37:35;6.77;;;2.23;;
64335;SDS011;50672;53.362;-6.240;2023-03-04T01:40:02;3.10;;;1.03;;
64335;SDS011;50672;53.362;-6.240;2023-03-04T01:42:31;1.80;;;1.10;;
64335;SDS011;50672;53.362;-6.240;2023-03-04T01:45:00;3.17;;;1.30;;
64335;SDS011;50672;53.362;-6.240;2023-03-04T01:47:28;3.60;;;1.57;;
64335;SDS011;50672;53.362;-6.240;2023-03-04T01:49:57;5.70;;;1.40;;
64335;SDS011;50672;53.362;-6.240;2023-03-04T01:52:28;5.77;;;1.73;;
64335;SDS011;50672;53.362;-6.240;2023-03-04T01:54:55;3.50;;;1.60;;
64335;SDS011;50672;53.362;-6.240;2023-03-04T01:57:24;3.97;;;1.10;;
64335;SDS011;50672;53.362;-6.240;2023-03-04T02:00:37;5.83;;;1.50;;
64335;SDS011;50672;53.362;-6.240;2023-03-04T02:02:41;4.13;;;1.20;;
64335;SDS011;50672;53.362;-6.240;2023-03-04T02:05:08;3.73;;;1.30;;
64335;SDS011;50672;53.362;-6.240;2023-03-04T02:07:35;2.63;;;1.10;;
64335;SDS011;50672;53.362;-6.240;2023-03-04T02:10:02;5.23;;;1.20;;
64335;SDS011;50672;53.362;-6.240;2023-03-04T02:12:30;4.80;;;1.20;;
64335;SDS011;50672;53.362;-6.240;2023-03-04T02:14:57;4.70;;;1.10;;
64335;SDS011;50672;53.362;-6.240;2023-03-04T02:17:24;3.80;;;1.37;;
64335;SDS011;50672;53.362;-6.240;2023-03-04T02:22:21;5.27;;;1.30;;
64335;SDS011;50672;53.362;-6.240;2023-03-04T02:24:49;5.23;;;1.87;;
64335;SDS011;50672;53.362;-6.240;2023-03-04T02:27:20;1.10;;;1.00;;
64335;SDS011;50672;53.362;-6.240;2023-03-04T02:29:47;3.50;;;1.30;;
64335;SDS011;50672;53.362;-6.240;2023-03-04T02:32:14;3.00;;;0.90;;
64335;SDS011;50672;53.362;-6.240;2023-03-04T02:34:45;4.90;;;1.43;;
64335;SDS011;50672;53.362;-6.240;2023-03-04T02:37:14;5.53;;;1.33;;
64335;SDS011;50672;53.362;-6.240;2023-03-04T02:39:43;7.33;;;1.77;;
64335;SDS011;50672;53.362;-6.240;2023-03-04T02:42:11;3.07;;;1.20;;
64335;SDS011;50672;53.362;-6.240;2023-03-04T02:44:40;6.27;;;1.70;;
64335;SDS011;50672;53.362;-6.240;2023-03-04T02:47:14;4.27;;;1.10;;
64335;SDS011;50672;53.362;-6.240;2023-03-04T02:49:45;7.73;;;1.70;;
64335;SDS011;50672;53.362;-6.240;2023-03-04T02:52:15;3.40;;;1.27;;
64335;SDS011;50672;53.362;-6.240;2023-03-04T02:54:44;4.77;;;1.73;;
64335;SDS011;50672;53.362;-6.240;2023-03-04T02:57:12;5.47;;;1.53;;
64335;SDS011;50672;53.362;-6.240;2023-03-04T02:59:40;2.10;;;1.13;;
64335;SDS011;50672;53.362;-6.240;2023-03-04T03:02:07;5.47;;;1.67;;
64335;SDS011;50672;53.362;-6.240;2023-03-04T03:04:38;3.53;;;1.30;;
64335;SDS011;50672;53.362;-6.240;2023-03-04T03:07:06;5.53;;;1.93;;
64335;SDS011;50672;53.362;-6.240;2023-03-04T03:09:33;3.50;;;1.23;;
64335;SDS011;50672;53.362;-6.240;2023-03-04T03:12:00;2.93;;;1.83;;
64335;SDS011;50672;53.362;-6.240;2023-03-04T03:14:26;3.23;;;1.30;;
64335;SDS011;50672;53.362;-6.240;2023-03-04T03:16:53;5.23;;;1.50;;
64335;SDS011;50672;53.362;-6.240;2023-03-04T03:19:20;4.00;;;1.60;;
64335;SDS011;50672;53.362;-6.240;2023-03-04T03:21:47;5.07;;;2.10;;
64335;SDS011;50672;53.362;-6.240;2023-03-04T03:24:15;2.87;;;1.40;;
64335;SDS011;50672;53.362;-6.240;2023-03-04T03:26:42;6.87;;;2.07;;
64335;SDS011;50672;53.362;-6.240;2023-03-04T03:29:08;4.00;;;1.27;;
64335;SDS011;50672;53.362;-6.240;2023-03-04T03:31:35;5.27;;;1.57;;
64335;SDS011;50672;53.362;-6.240;2023-03-04T03:34:02;4.13;;;1.60;;
64335;SDS011;50672;53.362;-6.240;2023-03-04T03:36:29;2.33;;;1.60;;
64335;SDS011;50672;53.362;-6.240;2023-03-04T03:38:56;2.17;;;1.50;;
64335;SDS011;50672;53.362;-6.240;2023-03-04T03:41:22;3.80;;;1.60;;
64335;SDS011;50672;53.362;-6.240;2023-03-04T03:43:49;4.47;;;1.60;;
64335;SDS011;50672;53.362;-6.240;2023-03-04T03:46:16;4.53;;;1.67;;
64335;SDS011;50672;53.362;-6.240;2023-03-04T03:48:43;6.47;;;2.63;;
64335;SDS011;50672;53.362;-6.240;2023-03-04T03:51:09;4.07;;;1.90;;
64335;SDS011;50672;53.362;-6.240;2023-03-04T03:53:36;3.70;;;1.30;;
64335;SDS011;50672;53.362;-6.240;2023-03-04T03:56:03;3.80;;;1.53;;
64335;SDS011;50672;53.362;-6.240;2023-03-04T03:58:30;5.40;;;1.60;;
64335;SDS011;50672;53.362;-6.240;2023-03-04T04:00:57;2.73;;;1.60;;
64335;SDS011;50672;53.362;-6.240;2023-03-04T04:03:24;3.80;;;1.70;;
64335;SDS011;50672;53.362;-6.240;2023-03-04T04:05:51;10.27;;;2.10;;
64335;SDS011;50672;53.362;-6.240;2023-03-04T04:08:18;5.67;;;1.80;;
64335;SDS011;50672;53.362;-6.240;2023-03-04T04:10:44;5.63;;;2.57;;
64335;SDS011;50672;53.362;-6.240;2023-03-04T04:13:11;2.93;;;1.50;;
64335;SDS011;50672;53.362;-6.240;2023-03-04T04:15:38;5.10;;;1.87;;
64335;SDS011;50672;53.362;-6.240;2023-03-04T04:18:05;4.43;;;1.77;;
64335;SDS011;50672;53.362;-6.240;2023-03-04T04:20:33;6.30;;;1.50;;
64335;SDS011;50672;53.362;-6.240;2023-03-04T04:23:01;3.97;;;1.47;;
64335;SDS011;50672;53.362;-6.240;2023-03-04T04:25:28;3.03;;;1.43;;
64335;SDS011;50672;53.362;-6.240;2023-03-04T04:27:55;5.00;;;1.97;;
64335;SDS011;50672;53.362;-6.240;2023-03-04T04:30:23;4.53;;;1.70;;
64335;SDS011;50672;53.362;-6.240;2023-03-04T04:32:50;1.60;;;1.43;;
64335;SDS011;50672;53.362;-6.240;2023-03-04T04:35:17;19.73;;;3.07;;
64335;SDS011;50672;53.362;-6.240;2023-03-04T04:37:44;2.23;;;1.50;;
64335;SDS011;50672;53.362;-6.240;2023-03-04T04:40:11;3.47;;;1.80;;
64335;SDS011;50672;53.362;-6.240;2023-03-04T04:42:38;4.37;;;1.70;;
64335;SDS011;50672;53.362;-6.240;2023-03-04T04:45:05;8.80;;;2.33;;
64335;SDS011;50672;53.362;-6.240;2023-03-04T04:47:33;3.27;;;1.50;;
64335;SDS011;50672;53.362;-6.240;2023-03-04T04:49:59;3.87;;;1.77;;
64335;SDS011;50672;53.362;-6.240;2023-03-04T04:52:28;3.37;;;1.77;;
64335;SDS011;50672;53.362;-6.240;2023-03-04T04:54:55;5.03;;;1.70;;
64335;SDS011;50672;53.362;-6.240;2023-03-04T04:57:22;4.33;;;1.20;;
64335;SDS011;50672;53.362;-6.240;2023-03-04T04:59:49;4.00;;;1.70;;
64335;SDS011;50672;53.362;-6.240;2023-03-04T05:02:15;5.07;;;1.70;;
64335;SDS011;50672;53.362;-6.240;2023-03-04T05:04:42;2.90;;;1.60;;
64335;SDS011;50672;53.362;-6.240;2023-03-04T05:07:09;5.20;;;2.80;;
64335;SDS011;50672;53.362;-6.240;2023-03-04T05:09:36;3.80;;;1.60;;
64335;SDS011;50672;53.362;-6.240;2023-03-04T05:12:03;4.60;;;1.77;;
64335;SDS011;50672;53.362;-6.240;2023-03-04T05:14:29;3.87;;;2.10;;
64335;SDS011;50672;53.362;-6.240;2023-03-04T05:16:56;3.83;;;1.80;;
64335;SDS011;50672;53.362;-6.240;2023-03-04T05:19:23;6.97;;;2.40;;
64335;SDS011;50672;53.362;-6.240;2023-03-04T05:21:50;5.17;;;2.37;;
64335;SDS011;50672;53.362;-6.240;2023-03-04T05:24:16;4.67;;;2.00;;
64335;SDS011;50672;53.362;-6.240;2023-03-04T05:26:43;4.90;;;2.07;;
64335;SDS011;50672;53.362;-6.240;2023-03-04T05:29:10;2.37;;;2.00;;
64335;SDS011;50672;53.362;-6.240;2023-03-04T05:31:37;2.47;;;1.70;;
64335;SDS011;50672;53.362;-6.240;2023-03-04T05:34:04;4.07;;;1.90;;
64335;SDS011;50672;53.362;-6.240;2023-03-04T05:36:31;3.50;;;2.20;;
64335;SDS011;50672;53.362;-6.240;2023-03-04T05:38:58;4.73;;;1.83;;
64335;SDS011;50672;53.362;-6.240;2023-03-04T05:41:24;3.13;;;2.00;;
64335;SDS011;50672;53.362;-6.240;2023-03-04T05:43:51;3.00;;;1.87;;
64335;SDS011;50672;53.362;-6.240;2023-03-04T05:46:18;4.80;;;2.80;;
64335;SDS011;50672;53.362;-6.240;2023-03-04T05:48:51;3.80;;;2.20;;
64335;SDS011;50672;53.362;-6.240;2023-03-04T05:51:20;2.93;;;2.17;;
64335;SDS011;50672;53.362;-6.240;2023-03-04T05:53:47;5.57;;;2.47;;
64335;SDS011;50672;53.362;-6.240;2023-03-04T05:56:16;3.23;;;2.40;;
64335;SDS011;50672;53.362;-6.240;2023-03-04T05:58:45;4.10;;;2.73;;
64335;SDS011;50672;53.362;-6.240;2023-03-04T06:01:15;3.87;;;2.57;;
64335;SDS011;50672;53.362;-6.240;2023-03-04T06:03:42;5.63;;;2.87;;
64335;SDS011;50672;53.362;-6.240;2023-03-04T06:06:09;4.40;;;2.97;;
64335;SDS011;50672;53.362;-6.240;2023-03-04T06:08:36;5.03;;;3.20;;
64335;SDS011;50672;53.362;-6.240;2023-03-04T06:11:03;6.80;;;3.20;;
64335;SDS011;50672;53.362;-6.240;2023-03-04T06:13:31;5.43;;;3.80;;
64335;SDS011;50672;53.362;-6.240;2023-03-04T06:15:58;6.00;;;4.13;;
64335;SDS011;50672;53.362;-6.240;2023-03-04T06:18:26;8.23;;;3.90;;
64335;SDS011;50672;53.362;-6.240;2023-03-04T06:20:54;6.80;;;4.27;;
64335;SDS011;50672;53.362;-6.240;2023-03-04T06:23:25;5.97;;;4.57;;
64335;SDS011;50672;53.362;-6.240;2023-03-04T06:25:55;7.63;;;5.43;;
64335;SDS011;50672;53.362;-6.240;2023-03-04T06:28:23;6.63;;;4.90;;
64335;SDS011;50672;53.362;-6.240;2023-03-04T06:30:51;5.97;;;4.97;;
64335;SDS011;50672;53.362;-6.240;2023-03-04T06:33:18;6.17;;;5.40;;
64335;SDS011;50672;53.362;-6.240;2023-03-04T06:35:45;5.73;;;5.00;;
64335;SDS011;50672;53.362;-6.240;2023-03-04T06:38:12;7.50;;;5.63;;
64335;SDS011;50672;53.362;-6.240;2023-03-04T06:40:40;7.63;;;5.60;;
64335;SDS011;50672;53.362;-6.240;2023-03-04T06:43:07;6.20;;;5.40;;
64335;SDS011;50672;53.362;-6.240;2023-03-04T06:45:33;7.73;;;6.13;;
64335;SDS011;50672;53.362;-6.240;2023-03-04T06:48:00;11.43;;;6.57;;
64335;SDS011;50672;53.362;-6.240;2023-03-04T06:50:27;8.03;;;6.37;;
64335;SDS011;50672;53.362;-6.240;2023-03-04T06:52:55;8.47;;;6.20;;
64335;SDS011;50672;53.362;-6.240;2023-03-04T06:55:23;9.07;;;6.67;;
64335;SDS011;50672;53.362;-6.240;2023-03-04T06:57:50;8.80;;;6.83;;
64335;SDS011;50672;53.362;-6.240;2023-03-04T07:00:17;8.27;;;6.50;;
64335;SDS011;50672;53.362;-6.240;2023-03-04T07:02:45;8.60;;;7.27;;
64335;SDS011;50672;53.362;-6.240;2023-03-04T07:05:11;8.93;;;6.87;;
64335;SDS011;50672;53.362;-6.240;2023-03-04T07:07:38;10.57;;;8.10;;
64335;SDS011;50672;53.362;-6.240;2023-03-04T07:10:05;9.30;;;7.53;;
64335;SDS011;50672;53.362;-6.240;2023-03-04T07:12:32;9.77;;;8.07;;
64335;SDS011;50672;53.362;-6.240;2023-03-04T07:14:59;12.50;;;9.47;;
64335;SDS011;50672;53.362;-6.240;2023-03-04T07:17:26;13.57;;;8.97;;
64335;SDS011;50672;53.362;-6.240;2023-03-04T07:19:53;9.83;;;7.93;;
64335;SDS011;50672;53.362;-6.240;2023-03-04T07:22:19;10.40;;;7.73;;
64335;SDS011;50672;53.362;-6.240;2023-03-04T07:24:46;9.60;;;8.60;;
64335;SDS011;50672;53.362;-6.240;2023-03-04T07:27:13;11.37;;;8.73;;
64335;SDS011;50672;53.362;-6.240;2023-03-04T07:29:40;9.40;;;7.93;;
64335;SDS011;50672;53.362;-6.240;2023-03-04T07:32:07;10.30;;;8.90;;
64335;SDS011;50672;53.362;-6.240;2023-03-04T07:34:35;10.47;;;8.33;;
64335;SDS011;50672;53.362;-6.240;2023-03-04T07:37:02;12.23;;;9.00;;
64335;SDS011;50672;53.362;-6.240;2023-03-04T07:39:29;14.00;;;8.67;;
64335;SDS011;50672;53.362;-6.240;2023-03-04T07:41:55;12.40;;;8.73;;
64335;SDS011;50672;53.362;-6.240;2023-03-04T07:44:22;13.87;;;9.27;;
64335;SDS011;50672;53.362;-6.240;2023-03-04T07:46:49;12.33;;;10.07;;
64335;SDS011;50672;53.362;-6.240;2023-03-04T07:49:16;11.53;;;9.07;;
64335;SDS011;50672;53.362;-6.240;2023-03-04T07:51:43;15.27;;;9.50;;
64335;SDS011;50672;53.362;-6.240;2023-03-04T07:54:09;12.07;;;9.40;;
64335;SDS011;50672;53.362;-6.240;2023-03-04T07:56:36;12.50;;;9.30;;
64335;SDS011;50672;53.362;-6.240;2023-03-04T07:59:03;12.10;;;8.87;;
64335;SDS011;50672;53.362;-6.240;2023-03-04T08:01:34;11.37;;;8.67;;
64335;SDS011;50672;53.362;-6.240;2023-03-04T08:04:05;12.68;;;9.75;;
64335;SDS011;50672;53.362;-6.240;2023-03-04T08:06:33;13.43;;;9.53;;
64335;SDS011;50672;53.362;-6.240;2023-03-04T08:09:04;11.40;;;9.57;;
64335;SDS011;50672;53.362;-6.240;2023-03-04T08:11:33;13.33;;;10.40;;
64335;SDS011;50672;53.362;-6.240;2023-03-04T08:14:01;12.83;;;9.50;;
64335;SDS011;50672;53.362;-6.240;2023-03-04T08:16:29;13.37;;;9.80;;
64335;SDS011;50672;53.362;-6.240;2023-03-04T08:18:57;11.33;;;8.83;;
64335;SDS011;50672;53.362;-6.240;2023-03-04T08:21:26;9.83;;;8.37;;
64335;SDS011;50672;53.362;-6.240;2023-03-04T08:23:53;11.87;;;9.40;;
64335;SDS011;50672;53.362;-6.240;2023-03-04T08:26:29;10.70;;;8.20;;
64335;SDS011;50672;53.362;-6.240;2023-03-04T08:29:00;12.13;;;9.47;;
64335;SDS011;50672;53.362;-6.240;2023-03-04T08:31:28;13.20;;;8.80;;
64335;SDS011;50672;53.362;-6.240;2023-03-04T08:33:56;15.70;;;9.53;;
64335;SDS011;50672;53.362;-6.240;2023-03-04T08:36:23;14.37;;;8.93;;
64335;SDS011;50672;53.362;-6.240;2023-03-04T08:38:50;13.53;;;8.50;;
64335;SDS011;50672;53.362;-6.240;2023-03-04T08:41:16;12.13;;;8.10;;
64335;SDS011;50672;53.362;-6.240;2023-03-04T08:43:43;17.60;;;8.80;;
64335;SDS011;50672;53.362;-6.240;2023-03-04T08:46:10;11.80;;;9.30;;
64335;SDS011;50672;53.362;-6.240;2023-03-04T08:48:37;10.90;;;8.10;;
64335;SDS011;50672;53.362;-6.240;2023-03-04T08:51:08;10.03;;;8.80;;
64335;SDS011;50672;53.362;-6.240;2023-03-04T08:53:36;11.38;;;8.85;;
64335;SDS011;50672;53.362;-6.240;2023-03-04T08:56:03;12.60;;;8.90;;
64335;SDS011;50672;53.362;-6.240;2023-03-04T08:58:31;10.33;;;7.73;;
64335;SDS011;50672;53.362;-6.240;2023-03-04T09:00:58;10.17;;;8.00;;
64335;SDS011;50672;53.362;-6.240;2023-03-04T09:03:26;9.60;;;7.90;;
64335;SDS011;50672;53.362;-6.240;2023-03-04T09:05:53;10.03;;;7.07;;
64335;SDS011;50672;53.362;-6.240;2023-03-04T09:08:20;10.67;;;7.93;;
64335;SDS011;50672;53.362;-6.240;2023-03-04T09:10:50;11.80;;;7.57;;
64335;SDS011;50672;53.362;-6.240;2023-03-04T09:13:18;10.43;;;8.17;;
64335;SDS011;50672;53.362;-6.240;2023-03-04T09:15:49;11.17;;;7.33;;
64335;SDS011;50672;53.362;-6.240;2023-03-04T09:18:18;8.23;;;7.25;;
64335;SDS011;50672;53.362;-6.240;2023-03-04T09:20:46;10.63;;;7.87;;
64335;SDS011;50672;53.362;-6.240;2023-03-04T09:23:13;11.77;;;7.60;;
64335;SDS011;50672;53.362;-6.240;2023-03-04T09:25:40;10.40;;;7.43;;
64335;SDS011;50672;53.362;-6.240;2023-03-04T09:28:09;9.37;;;7.50;;
64335;SDS011;50672;53.362;-6.240;2023-03-04T09:30:36;10.67;;;8.23;;
64335;SDS011;50672;53.362;-6.240;2023-03-04T09:33:03;9.23;;;7.87;;
64335;SDS011;50672;53.362;-6.240;2023-03-04T09:35:30;9.97;;;7.00;;
64335;SDS011;50672;53.362;-6.240;2023-03-04T09:37:57;12.90;;;7.50;;
64335;SDS011;50672;53.362;-6.240;2023-03-04T09:40:46;11.37;;;6.80;;
64335;SDS011;50672;53.362;-6.240;2023-03-04T09:43:16;9.43;;;7.33;;
64335;SDS011;50672;53.362;-6.240;2023-03-04T09:45:48;9.37;;;6.80;;
64335;SDS011;50672;53.362;-6.240;2023-03-04T09:48:20;13.13;;;7.63;;
64335;SDS011;50672;53.362;-6.240;2023-03-04T09:50:57;9.80;;;6.90;;
64335;SDS011;50672;53.362;-6.240;2023-03-04T09:53:42;10.17;;;7.13;;
64335;SDS011;50672;53.362;-6.240;2023-03-04T09:56:19;10.50;;;7.63;;
64335;SDS011;50672;53.362;-6.240;2023-03-04T09:58:51;9.17;;;7.53;;
64335;SDS011;50672;53.362;-6.240;2023-03-04T10:01:49;9.57;;;7.13;;
64335;SDS011;50672;53.362;-6.240;2023-03-04T10:07:02;9.67;;;7.33;;
64335;SDS011;50672;53.362;-6.240;2023-03-04T10:09:33;11.13;;;7.57;;
64335;SDS011;50672;53.362;-6.240;2023-03-04T10:12:16;10.17;;;6.90;;
64335;SDS011;50672;53.362;-6.240;2023-03-04T10:14:48;11.95;;;7.47;;
64335;SDS011;50672;53.362;-6.240;2023-03-04T10:17:39;11.82;;;7.50;;
64335;SDS011;50672;53.362;-6.240;2023-03-04T10:20:15;8.53;;;6.53;;
64335;SDS011;50672;53.362;-6.240;2023-03-04T10:22:47;10.60;;;7.07;;
64335;SDS011;50672;53.362;-6.240;2023-03-04T10:25:19;12.83;;;6.80;;
64335;SDS011;50672;53.362;-6.240;2023-03-04T10:28:02;13.03;;;7.23;;
64335;SDS011;50672;53.362;-6.240;2023-03-04T10:33:12;9.67;;;6.37;;
64335;SDS011;50672;53.362;-6.240;2023-03-04T10:35:42;10.93;;;6.67;;
64335;SDS011;50672;53.362;-6.240;2023-03-04T10:38:13;8.35;;;6.45;;
64335;SDS011;50672;53.362;-6.240;2023-03-04T10:40:41;8.63;;;6.37;;
64335;SDS011;50672;53.362;-6.240;2023-03-04T10:43:17;9.70;;;6.60;;
64335;SDS011;50672;53.362;-6.240;2023-03-04T10:45:46;9.10;;;6.27;;
64335;SDS011;50672;53.362;-6.240;2023-03-04T10:48:25;9.93;;;6.20;;
64335;SDS011;50672;53.362;-6.240;2023-03-04T10:50:54;10.27;;;6.33;;
64335;SDS011;50672;53.362;-6.240;2023-03-04T10:53:46;9.37;;;6.07;;
64335;SDS011;50672;53.362;-6.240;2023-03-04T11:04:38;9.10;;;5.82;;
64335;SDS011;50672;53.362;-6.240;2023-03-04T11:07:09;6.63;;;5.20;;
64335;SDS011;50672;53.362;-6.240;2023-03-04T11:09:36;8.07;;;5.30;;
64335;SDS011;50672;53.362;-6.240;2023-03-04T11:12:09;9.20;;;4.80;;
64335;SDS011;50672;53.362;-6.240;2023-03-04T11:14:41;8.80;;;4.70;;
64335;SDS011;50672;53.362;-6.240;2023-03-04T11:17:18;7.50;;;4.50;;
64335;SDS011;50672;53.362;-6.240;2023-03-04T11:19:52;6.70;;;4.60;;
64335;SDS011;50672;53.362;-6.240;2023-03-04T11:22:28;9.40;;;5.17;;
64335;SDS011;50672;53.362;-6.240;2023-03-04T11:25:07;8.90;;;4.80;;
64335;SDS011;50672;53.362;-6.240;2023-03-04T11:27:51;7.70;;;4.97;;
64335;SDS011;50672;53.362;-6.240;2023-03-04T11:30:32;8.57;;;4.47;;
64335;SDS011;50672;53.362;-6.240;2023-03-04T11:33:07;11.73;;;4.57;;
64335;SDS011;50672;53.362;-6.240;2023-03-04T11:38:32;7.30;;;4.63;;
64335;SDS011;50672;53.362;-6.240;2023-03-04T11:41:32;6.90;;;4.67;;
64335;SDS011;50672;53.362;-6.240;2023-03-04T11:44:02;10.05;;;4.43;;
64335;SDS011;50672;53.362;-6.240;2023-03-04T11:55:28;9.03;;;4.93;;
64335;SDS011;50672;53.362;-6.240;2023-03-04T12:04:06;5.77;;;4.17;;
64335;SDS011;50672;53.362;-6.240;2023-03-04T12:13:28;8.33;;;4.30;;
64335;SDS011;50672;53.362;-6.240;2023-03-04T12:15:47;8.77;;;4.13;;
64335;SDS011;50672;53.362;-6.240;2023-03-04T12:24:10;8.60;;;4.33;;
64335;SDS011;50672;53.362;-6.240;2023-03-04T12:31:55;13.00;;;4.38;;
64335;SDS011;50672;53.362;-6.240;2023-03-04T12:45:46;7.63;;;4.63;;
64335;SDS011;50672;53.362;-6.240;2023-03-04T12:48:30;8.00;;;4.00;;
64335;SDS011;50672;53.362;-6.240;2023-03-04T12:59:16;6.37;;;4.37;;
64335;SDS011;50672;53.362;-6.240;2023-03-04T13:04:56;7.53;;;5.10;;
64335;SDS011;50672;53.362;-6.240;2023-03-04T13:07:55;8.73;;;4.73;;
64335;SDS011;50672;53.362;-6.240;2023-03-04T13:10:29;8.90;;;4.47;;
64335;SDS011;50672;53.362;-6.240;2023-03-04T13:12:57;5.63;;;4.20;;
64335;SDS011;50672;53.362;-6.240;2023-03-04T13:15:29;5.57;;;4.30;;
64335;SDS011;50672;53.362;-6.240;2023-03-04T13:23:37;6.33;;;3.90;;
64335;SDS011;50672;53.362;-6.240;2023-03-04T13:26:10;6.47;;;3.67;;
64335;SDS011;50672;53.362;-6.240;2023-03-04T13:34:43;6.67;;;3.70;;
64335;SDS011;50672;53.362;-6.240;2023-03-04T13:42:46;7.63;;;3.60;;
64335;SDS011;50672;53.362;-6.240;2023-03-04T13:48:21;4.97;;;3.50;;
64335;SDS011;50672;53.362;-6.240;2023-03-04T13:50:50;5.60;;;3.63;;
64335;SDS011;50672;53.362;-6.240;2023-03-04T13:56:11;7.43;;;3.73;;
64335;SDS011;50672;53.362;-6.240;2023-03-04T13:58:51;8.70;;;3.50;;
64335;SDS011;50672;53.362;-6.240;2023-03-04T14:01:29;5.40;;;3.47;;
64335;SDS011;50672;53.362;-6.240;2023-03-04T14:03:58;6.47;;;3.50;;
64335;SDS011;50672;53.362;-6.240;2023-03-04T14:06:27;7.97;;;3.90;;
64335;SDS011;50672;53.362;-6.240;2023-03-04T14:08:55;6.67;;;3.97;;
64335;SDS011;50672;53.362;-6.240;2023-03-04T14:11:33;5.57;;;3.73;;
64335;SDS011;50672;53.362;-6.240;2023-03-04T14:14:05;10.67;;;4.00;;
64335;SDS011;50672;53.362;-6.240;2023-03-04T14:16:37;8.13;;;4.10;;
64335;SDS011;50672;53.362;-6.240;2023-03-04T14:19:11;11.60;;;3.97;;
64335;SDS011;50672;53.362;-6.240;2023-03-04T14:21:47;6.10;;;4.43;;
64335;SDS011;50672;53.362;-6.240;2023-03-04T14:24:15;7.90;;;3.70;;
64335;SDS011;50672;53.362;-6.240;2023-03-04T14:26:44;5.33;;;3.63;;
64335;SDS011;50672;53.362;-6.240;2023-03-04T14:29:24;7.70;;;4.23;;
64335;SDS011;50672;53.362;-6.240;2023-03-04T14:31:52;7.17;;;3.70;;
64335;SDS011;50672;53.362;-6.240;2023-03-04T14:34:22;5.80;;;3.80;;
64335;SDS011;50672;53.362;-6.240;2023-03-04T14:36:54;6.53;;;3.40;;
64335;SDS011;50672;53.362;-6.240;2023-03-04T14:39:21;6.77;;;4.17;;
64335;SDS011;50672;53.362;-6.240;2023-03-04T14:41:50;12.73;;;7.00;;
64335;SDS011;50672;53.362;-6.240;2023-03-04T14:47:05;7.17;;;3.73;;
64335;SDS011;50672;53.362;-6.240;2023-03-04T14:49:48;6.10;;;3.90;;
64335;SDS011;50672;53.362;-6.240;2023-03-04T14:52:26;10.77;;;4.50;;
64335;SDS011;50672;53.362;-6.240;2023-03-04T14:57:43;5.07;;;4.13;;
64335;SDS011;50672;53.362;-6.240;2023-03-04T15:02:59;6.97;;;4.13;;
64335;SDS011;50672;53.362;-6.240;2023-03-04T15:05:29;7.47;;;4.70;;
64335;SDS011;50672;53.362;-6.240;2023-03-04T15:07:59;6.60;;;3.77;;
64335;SDS011;50672;53.362;-6.240;2023-03-04T15:10:37;8.43;;;4.07;;
64335;SDS011;50672;53.362;-6.240;2023-03-04T15:13:06;6.80;;;3.90;;
64335;SDS011;50672;53.362;-6.240;2023-03-04T15:15:36;5.90;;;3.70;;
64335;SDS011;50672;53.362;-6.240;2023-03-04T15:20:40;6.55;;;3.92;;
64335;SDS011;50672;53.362;-6.240;2023-03-04T15:23:07;6.30;;;3.43;;
64335;SDS011;50672;53.362;-6.240;2023-03-04T15:25:35;7.90;;;4.00;;
64335;SDS011;50672;53.362;-6.240;2023-03-04T15:28:02;5.87;;;3.47;;
64335;SDS011;50672;53.362;-6.240;2023-03-04T15:30:30;7.67;;;4.03;;
64335;SDS011;50672;53.362;-6.240;2023-03-04T15:32:58;8.87;;;4.33;;
64335;SDS011;50672;53.362;-6.240;2023-03-04T15:35:26;6.87;;;3.57;;
64335;SDS011;50672;53.362;-6.240;2023-03-04T15:37:56;8.33;;;4.43;;
64335;SDS011;50672;53.362;-6.240;2023-03-04T15:40:25;10.43;;;5.40;;
64335;SDS011;50672;53.362;-6.240;2023-03-04T15:42:53;7.60;;;4.40;;
64335;SDS011;50672;53.362;-6.240;2023-03-04T15:45:42;11.63;;;5.67;;
64335;SDS011;50672;53.362;-6.240;2023-03-04T15:48:10;7.10;;;4.30;;
64335;SDS011;50672;53.362;-6.240;2023-03-04T15:50:40;5.33;;;4.20;;
64335;SDS011;50672;53.362;-6.240;2023-03-04T15:53:16;7.13;;;4.27;;
64335;SDS011;50672;53.362;-6.240;2023-03-04T15:55:51;5.73;;;4.20;;
64335;SDS011;50672;53.362;-6.240;2023-03-04T15:58:18;6.47;;;4.53;;
64335;SDS011;50672;53.362;-6.240;2023-03-04T16:00:45;8.33;;;4.67;;
64335;SDS011;50672;53.362;-6.240;2023-03-04T16:03:13;6.23;;;4.33;;
64335;SDS011;50672;53.362;-6.240;2023-03-04T16:05:42;8.17;;;3.93;;
64335;SDS011;50672;53.362;-6.240;2023-03-04T16:08:12;7.37;;;4.60;;
64335;SDS011;50672;53.362;-6.240;2023-03-04T16:10:41;7.57;;;4.30;;
64335;SDS011;50672;53.362;-6.240;2023-03-04T16:13:12;7.13;;;4.80;;
64335;SDS011;50672;53.362;-6.240;2023-03-04T16:15:41;7.43;;;4.80;;
64335;SDS011;50672;53.362;-6.240;2023-03-04T16:18:09;10.53;;;5.00;;
64335;SDS011;50672;53.362;-6.240;2023-03-04T16:20:37;7.97;;;4.80;;
64335;SDS011;50672;53.362;-6.240;2023-03-04T16:23:08;7.70;;;4.97;;
64335;SDS011;50672;53.362;-6.240;2023-03-04T16:25:38;9.02;;;5.30;;
64335;SDS011;50672;53.362;-6.240;2023-03-04T16:28:08;7.93;;;5.10;;
64335;SDS011;50672;53.362;-6.240;2023-03-04T16:30:36;7.03;;;5.00;;
64335;SDS011;50672;53.362;-6.240;2023-03-04T16:33:02;10.73;;;5.43;;